Time;durP1;ratioP1;P1;durP2;ratioP2;P2;SDS_P1;SDS_P2;PMS_P1;PMS_P2;Temp;Humidity;BMP_temperature;BMP_pressure;BME280_temperature;BME280_humidity;BME280_pressure;Samples;Min_cycle;Max_cycle;Signal;HPM_P1;HPM_P2
2022/08/05 05:03:03;;;;;;;;;;;23.90;83.10;;;;;;5184779;23;20201;-75
2022/08/05 05:05:29;;;;;;;;;;;23.90;83.20;;;;;;4873566;29;19926;-75
2022/08/05 05:08:15;;;;;;;;;;;23.90;83.70;;;;;;4890929;29;20144;-74
2022/08/05 05:10:42;;;;;;;;;;;24.00;83.60;;;;;;4883092;29;19908;-75
2022/08/05 05:13:08;;;;;;;;;;;24.10;83.20;;;;;;4890728;29;19923;-75
2022/08/05 05:15:34;;;;;;;;;;;24.20;82.90;;;;;;4889383;29;19935;-75
2022/08/05 05:18:00;;;;;;;;;;;24.30;82.70;;;;;;4889354;29;20098;-76
2022/08/05 05:20:26;;;;;;;;;;;24.40;82.30;;;;;;4888194;29;20105;-75
2022/08/05 05:22:52;;;;;;;;;;;24.60;81.90;;;;;;4888836;29;19912;-76
2022/08/05 05:25:17;;;;;;;;;;;24.70;81.20;;;;;;4889062;29;19908;-75
2022/08/05 05:27:43;;;;;;;;;;;24.80;81.10;;;;;;4888804;29;19916;-73
2022/08/05 05:30:09;;;;;;;;;;;24.90;80.80;;;;;;4888299;29;20244;-75
2022/08/05 05:32:35;;;;;;;;;;;25.10;80.40;;;;;;4887194;29;19911;-77
2022/08/05 05:35:00;;;;;;;;;;;25.10;80.30;;;;;;4887651;29;19951;-74
2022/08/05 05:37:26;;;;;;;;;;;25.20;80.30;;;;;;4886464;29;20046;-74
2022/08/05 05:39:52;;;;;;;;;;;25.20;80.10;;;;;;4887279;29;20126;-75
2022/08/05 05:42:17;;;;;;;;;;;25.20;80.20;;;;;;4886575;29;19916;-75
2022/08/05 05:44:43;;;;;;;;;;;25.30;80.20;;;;;;4887097;29;20002;-74
2022/08/05 05:47:08;;;;;;;;;;;25.30;80.20;;;;;;4885114;29;19911;-75
2022/08/05 05:49:34;;;;;;;;;;;25.30;80.20;;;;;;4884717;29;19992;-77
2022/08/05 05:52:01;;;;;;;;;;;25.30;80.20;;;;;;4885734;29;19919;-75
2022/08/05 05:54:26;;;;;;;;;;;25.30;80.30;;;;;;4884494;29;20003;-75
2022/08/05 05:56:52;;;;;;;;;;;25.50;80.20;;;;;;4885065;29;19912;-76
2022/08/05 05:59:18;;;;;;;;;;;25.50;80.20;;;;;;4885216;29;19912;-76
2022/08/05 06:01:43;;;;;;;;;;;25.60;80.10;;;;;;4886966;29;20225;-77
2022/08/05 06:04:11;;;;;;;;;;;25.70;79.70;;;;;;4882369;29;19912;-76
2022/08/05 06:06:36;;;;;;;;;;;25.70;79.40;;;;;;4881978;29;19919;-76
2022/08/05 06:09:03;;;;;;;;;;;25.70;79.40;;;;;;4883101;29;19927;-75
2022/08/05 06:11:28;;;;;;;;;;;25.70;79.50;;;;;;4882732;29;19912;-76
2022/08/05 06:13:54;;;;;;;;;;;25.90;79.30;;;;;;4883075;29;19912;-76
2022/08/05 06:16:20;;;;;;;;;;;25.90;78.90;;;;;;4881317;29;19946;-77
2022/08/05 06:18:46;;;;;;;;;;;26.10;78.10;;;;;;4880364;29;19943;-77
2022/08/05 06:21:11;;;;;;;;;;;26.20;77.40;;;;;;4882065;29;19999;-76
2022/08/05 06:23:37;;;;;;;;;;;26.10;77.70;;;;;;4880972;29;19987;-76
2022/08/05 06:26:02;;;;;;;;;;;25.90;77.30;;;;;;4881459;29;20235;-76
2022/08/05 06:28:28;;;;;;;;;;;25.90;77.50;;;;;;4880181;29;19912;-76
2022/08/05 06:30:54;;;;;;;;;;;26.00;77.50;;;;;;4880476;29;19912;-75
2022/08/05 06:33:20;;;;;;;;;;;26.00;77.60;;;;;;4879325;29;20014;-77
2022/08/05 06:35:45;;;;;;;;;;;26.10;77.40;;;;;;4877832;29;19984;-76
2022/08/05 06:38:11;;;;;;;;;;;26.20;77.70;;;;;;4886028;29;20078;-75
2022/08/05 06:40:36;;;;;;;;;;;26.30;77.40;;;;;;4881528;29;19980;-75
2022/08/05 06:43:02;;;;;;;;;;;26.40;77.00;;;;;;4898156;29;20197;-76
2022/08/05 06:45:28;;;;;;;;;;;26.50;75.90;;;;;;4895942;29;19911;-76
2022/08/05 06:47:53;;;;;;;;;;;26.60;76.60;;;;;;4896709;29;19911;-76
2022/08/05 06:50:19;;;;;;;;;;;26.70;75.70;;;;;;4896218;29;19913;-77
2022/08/05 06:52:45;;;;;;;;;;;26.80;75.60;;;;;;4895862;29;20197;-76
2022/08/05 06:55:10;;;;;;;;;;;26.90;75.10;;;;;;4879072;29;20195;-76
2022/08/05 06:57:36;;;;;;;;;;;27.00;74.90;;;;;;4896083;29;20188;-75
2022/08/05 07:00:02;;;;;;;;;;;27.20;74.10;;;;;;4896541;29;19911;-77
2022/08/05 07:02:29;;;;;;;;;;;27.30;73.50;;;;;;4875776;29;19931;-77
2022/08/05 07:04:54;;;;;;;;;;;27.30;73.50;;;;;;4890729;29;19918;-76
2022/08/05 07:07:20;;;;;;;;;;;27.30;73.90;;;;;;4875226;29;19916;-76
2022/08/05 07:09:46;;;;;;;;;;;27.30;73.70;;;;;;4874565;29;19915;-78
2022/08/05 07:16:48;;;;;;;;;;;27.30;73.90;;;;;;4863885;29;19960;-77
2022/08/05 07:18:02;;;;;;;;;;;27.10;73.40;;;;;;4742035;30;19984;-76
2022/08/05 07:20:28;;;;;;;;;;;27.20;73.20;;;;;;4748802;30;20135;-77
2022/08/05 07:22:53;;;;;;;;;;;27.20;73.20;;;;;;4803928;29;19920;-77
2022/08/05 07:25:19;;;;;;;;;;;27.30;73.10;;;;;;4879353;29;19919;-78
2022/08/05 07:27:45;;;;;;;;;;;27.50;73.00;;;;;;4847244;29;19950;-78
2022/08/05 07:30:13;;;;;;;;;;;27.70;71.80;;;;;;4879601;29;19920;-77
2022/08/05 07:32:39;;;;;;;;;;;27.80;71.50;;;;;;4861202;29;20198;-76
2022/08/05 07:35:08;;;;;;;;;;;27.80;71.90;;;;;;4878345;29;19922;-76
2022/08/05 07:37:34;;;;;;;;;;;27.70;71.70;;;;;;4869247;29;20079;-76
2022/08/05 07:40:01;;;;;;;;;;;27.80;71.70;;;;;;4859534;29;19919;-78
2022/08/05 07:42:26;;;;;;;;;;;27.80;71.40;;;;;;4878100;29;20185;-77
2022/08/05 07:44:52;;;;;;;;;;;27.90;70.90;;;;;;4861794;29;19927;-77
2022/08/05 07:47:18;;;;;;;;;;;27.90;70.20;;;;;;4875242;29;19953;-78
2022/08/05 07:49:46;;;;;;;;;;;27.90;70.80;;;;;;4857240;29;20258;-77
2022/08/05 07:52:14;;;;;;;;;;;27.70;70.90;;;;;;4876644;29;19912;-77
2022/08/05 07:54:40;;;;;;;;;;;27.80;70.90;;;;;;4845411;29;20091;-76
2022/08/05 07:57:05;;;;;;;;;;;27.80;70.50;;;;;;4878907;29;19915;-76
2022/08/05 07:59:31;;;;;;;;;;;28.00;70.40;;;;;;4861009;29;19912;-77
2022/08/05 08:01:57;;;;;;;;;;;28.20;69.90;;;;;;4841682;29;19928;-78
2022/08/05 08:04:23;;;;;;;;;;;28.40;69.60;;;;;;4866232;29;19928;-76
2022/08/05 08:06:48;;;;;;;;;;;28.60;69.00;;;;;;4859557;29;19922;-75
2022/08/05 08:09:14;;;;;;;;;;;28.50;67.70;;;;;;4861809;29;20183;-75
2022/08/05 08:11:43;;;;;;;;;;;28.70;67.20;;;;;;4879590;29;19912;-78
2022/08/05 08:14:08;;;;;;;;;;;28.70;64.80;;;;;;4861982;29;19912;-75
2022/08/05 08:16:34;;;;;;;;;;;28.70;65.00;;;;;;4877782;29;19923;-76
2022/08/05 08:19:00;;;;;;;;;;;28.80;65.10;;;;;;4876090;29;19927;-74
2022/08/05 08:21:29;;;;;;;;;;;28.80;64.40;;;;;;4873613;29;19934;-75
2022/08/05 08:24:01;;;;;;;;;;;28.90;63.90;;;;;;4878559;29;19907;-80
2022/08/05 08:26:27;;;;;;;;;;;28.90;62.70;;;;;;4852746;29;20337;-77
2022/08/05 08:28:52;;;;;;;;;;;28.80;62.80;;;;;;4868783;29;19979;-77
2022/08/05 08:31:21;;;;;;;;;;;28.80;63.10;;;;;;4862270;29;19908;-80
2022/08/05 08:33:46;;;;;;;;;;;28.70;63.00;;;;;;4867642;29;19986;-78
2022/08/05 08:36:12;;;;;;;;;;;28.70;63.10;;;;;;4845899;29;19912;-78
2022/08/05 08:38:38;;;;;;;;;;;28.80;63.40;;;;;;4863217;29;19927;-79
2022/08/05 08:41:07;;;;;;;;;;;28.90;63.40;;;;;;4868673;29;19982;-78
2022/08/05 08:43:33;;;;;;;;;;;29.00;63.10;;;;;;4868880;29;19943;-79
2022/08/05 08:46:00;;;;;;;;;;;29.10;62.50;;;;;;4882455;29;20196;-76
2022/08/05 08:48:27;;;;;;;;;;;29.40;62.30;;;;;;4880731;29;19920;-76
2022/08/05 08:50:52;;;;;;;;;;;29.40;62.40;;;;;;4880803;29;20214;-75
2022/08/05 08:53:18;;;;;;;;;;;29.50;62.40;;;;;;4856052;29;19920;-73
2022/08/05 08:55:44;;;;;;;;;;;29.70;62.50;;;;;;4845395;29;19973;-77
2022/08/05 08:58:10;;;;;;;;;;;29.80;62.20;;;;;;4874774;29;19912;-76
2022/08/05 09:00:35;;;;;;;;;;;30.00;62.30;;;;;;4876532;29;19919;-77
2022/08/05 09:03:04;;;;;;;;;;;30.10;61.40;;;;;;4871585;29;19919;-76
2022/08/05 09:05:30;;;;;;;;;;;30.10;61.10;;;;;;4883232;29;19927;-76
2022/08/05 09:07:55;;;;;;;;;;;29.90;61.60;;;;;;4900533;29;19912;-77
2022/08/05 09:10:21;;;;;;;;;;;30.00;61.30;;;;;;4900722;29;20186;-76
2022/08/05 09:12:47;;;;;;;;;;;30.10;60.80;;;;;;4898333;29;20173;-76
2022/08/05 09:15:13;;;;;;;;;;;30.10;61.50;;;;;;4898622;29;19959;-76
2022/08/05 09:17:39;;;;;;;;;;;30.30;60.70;;;;;;4883103;29;19911;-75
2022/08/05 09:20:05;;;;;;;;;;;30.30;60.70;;;;;;4898914;29;19911;-76
2022/08/05 09:22:57;;;;;;;;;;;30.50;61.00;;;;;;4898807;29;19919;-76
2022/08/05 09:25:23;;;;;;;;;;;30.70;60.70;;;;;;4897471;29;19912;-78
2022/08/05 09:27:48;;;;;;;;;;;30.70;60.20;;;;;;4901118;29;19919;-76
2022/08/05 09:30:15;;;;;;;;;;;30.80;60.00;;;;;;4902451;29;19911;-75
2022/08/05 09:32:41;;;;;;;;;;;30.80;60.10;;;;;;4899075;29;19912;-75
2022/08/05 09:35:13;;;;;;;;;;;30.80;59.90;;;;;;4899688;29;19943;-76
2022/08/05 09:37:49;;;;;;;;;;;30.80;60.80;;;;;;4899236;29;19919;-76
2022/08/05 09:40:32;;;;;;;;;;;30.80;59.70;;;;;;4901062;29;19918;-75
2022/08/05 09:42:58;;;;;;;;;;;30.90;59.20;;;;;;4900522;29;20190;-75
2022/08/05 09:45:34;;;;;;;;;;;31.00;59.40;;;;;;4893644;29;19907;-76
2022/08/05 09:47:59;;;;;;;;;;;31.20;59.20;;;;;;4879272;29;19912;-73
2022/08/05 09:50:35;;;;;;;;;;;31.10;58.40;;;;;;4894506;29;19975;-75
2022/08/05 09:53:01;;;;;;;;;;;31.20;59.00;;;;;;4899042;29;19919;-75
2022/08/05 09:55:26;;;;;;;;;;;31.00;58.60;;;;;;4881278;29;19919;-76
2022/08/05 09:57:52;;;;;;;;;;;30.80;58.50;;;;;;4900481;29;19945;-75
2022/08/05 10:00:19;;;;;;;;;;;30.80;58.50;;;;;;4897206;29;19998;-76
2022/08/05 10:02:44;;;;;;;;;;;30.80;58.60;;;;;;4879230;29;19925;-74
2022/08/05 10:05:11;;;;;;;;;;;30.80;58.60;;;;;;4898470;29;19979;-75
2022/08/05 10:07:53;;;;;;;;;;;30.80;58.50;;;;;;4880038;29;19931;-74
2022/08/05 10:10:22;;;;;;;;;;;30.80;58.50;;;;;;4898757;29;19911;-74
2022/08/05 10:12:50;;;;;;;;;;;31.00;58.50;;;;;;4897439;29;20101;-75
2022/08/05 10:15:16;;;;;;;;;;;31.30;58.10;;;;;;4882432;29;19919;-75
2022/08/05 10:17:42;;;;;;;;;;;31.50;57.70;;;;;;4896022;29;20251;-74
2022/08/05 10:20:10;;;;;;;;;;;31.60;57.90;;;;;;4894844;29;19939;-75
2022/08/05 10:22:38;;;;;;;;;;;31.70;57.50;;;;;;4898400;29;20105;-77
2022/08/05 10:25:04;;;;;;;;;;;31.80;57.10;;;;;;4880408;29;19986;-77
2022/08/05 10:27:30;;;;;;;;;;;31.80;57.30;;;;;;4894693;29;19934;-76
2022/08/05 10:29:55;;;;;;;;;;;31.80;57.20;;;;;;4881035;29;20189;-78
2022/08/05 10:32:22;;;;;;;;;;;32.10;57.10;;;;;;4894648;29;19935;-74
2022/08/05 10:34:47;;;;;;;;;;;32.10;56.50;;;;;;4895156;29;19928;-77
2022/08/05 10:37:13;;;;;;;;;;;32.20;56.80;;;;;;4898574;29;19907;-75
2022/08/05 10:39:42;;;;;;;;;;;32.20;55.60;;;;;;4863383;29;19974;-74
2022/08/05 10:42:13;;;;;;;;;;;32.30;56.10;;;;;;4895715;29;19982;-76
2022/08/05 10:44:43;;;;;;;;;;;32.40;56.30;;;;;;4880411;29;20033;-76
2022/08/05 10:47:10;;;;;;;;;;;32.50;55.60;;;;;;4896700;29;19911;-75
2022/08/05 10:49:56;;;;;;;;;;;32.50;55.30;;;;;;4895086;29;19907;-79
2022/08/05 10:52:41;;;;;;;;;;;32.60;54.90;;;;;;4895247;29;19919;-75
2022/08/05 10:55:08;;;;;;;;;;;32.80;54.60;;;;;;4879018;29;20000;-75
2022/08/05 10:57:34;;;;;;;;;;;32.80;55.00;;;;;;4894790;29;19918;-75
2022/08/05 11:00:06;;;;;;;;;;;32.80;55.60;;;;;;4898150;29;20104;-76
2022/08/05 11:02:32;;;;;;;;;;;32.90;55.40;;;;;;4896622;29;20020;-76
2022/08/05 11:04:58;;;;;;;;;;;33.00;54.80;;;;;;4898556;29;19911;-76
2022/08/05 11:07:23;;;;;;;;;;;33.00;54.90;;;;;;4900195;29;19998;-76
2022/08/05 11:09:50;;;;;;;;;;;33.20;54.90;;;;;;4899481;29;19988;-77
2022/08/05 11:12:24;;;;;;;;;;;33.40;54.60;;;;;;4900260;29;19974;-76
2022/08/05 11:15:06;;;;;;;;;;;33.40;54.50;;;;;;4899252;29;19927;-77
2022/08/05 11:17:34;;;;;;;;;;;33.50;53.70;;;;;;4896821;29;19911;-75
2022/08/05 11:19:59;;;;;;;;;;;33.70;53.90;;;;;;4882861;29;20140;-76
2022/08/05 11:22:37;;;;;;;;;;;34.10;53.20;;;;;;4887466;29;19956;-78
2022/08/05 11:25:22;;;;;;;;;;;34.20;53.00;;;;;;4853398;29;19921;-76
2022/08/05 11:27:48;;;;;;;;;;;34.60;52.80;;;;;;4872617;29;20845;-75
2022/08/05 11:30:14;;;;;;;;;;;34.50;52.30;;;;;;4894189;29;19911;-77
2022/08/05 11:32:40;;;;;;;;;;;34.40;52.70;;;;;;4895035;29;19911;-75
2022/08/05 11:35:05;;;;;;;;;;;34.40;52.70;;;;;;4871891;29;19915;-75
2022/08/05 11:37:42;;;;;;;;;;;34.60;52.30;;;;;;4877505;29;19953;-78
2022/08/05 11:40:08;;;;;;;;;;;35.20;51.80;;;;;;4879615;29;19911;-77
2022/08/05 11:42:38;;;;;;;;;;;35.50;51.30;;;;;;4882148;29;20078;-76
2022/08/05 11:45:04;;;;;;;;;;;35.90;51.20;;;;;;4881865;29;19915;-76
2022/08/05 11:47:31;;;;;;;;;;;36.80;50.20;;;;;;4895309;29;19908;-76
2022/08/05 11:49:57;;;;;;;;;;;36.60;49.50;;;;;;4880295;29;19912;-75
2022/08/05 11:52:26;;;;;;;;;;;36.40;50.20;;;;;;4883278;29;20102;-76
2022/08/05 11:54:52;;;;;;;;;;;36.10;50.10;;;;;;4898106;29;20555;-75
2022/08/05 11:57:18;;;;;;;;;;;36.00;50.50;;;;;;4898384;29;19912;-75
2022/08/05 11:59:44;;;;;;;;;;;36.00;50.90;;;;;;4882995;29;19923;-76
2022/08/05 12:02:09;;;;;;;;;;;36.40;50.80;;;;;;4895623;29;19919;-75
2022/08/05 12:04:43;;;;;;;;;;;37.10;49.80;;;;;;4894925;29;19915;-75
2022/08/05 12:07:09;;;;;;;;;;;37.30;49.50;;;;;;4896274;29;19911;-78
2022/08/05 12:09:36;;;;;;;;;;;36.70;49.40;;;;;;4897533;29;19946;-75
2022/08/05 12:12:03;;;;;;;;;;;36.40;49.80;;;;;;4896386;29;19971;-75
2022/08/05 12:14:36;;;;;;;;;;;37.10;49.30;;;;;;4879208;29;19919;-74
2022/08/05 12:17:09;;;;;;;;;;;37.50;49.10;;;;;;4895049;29;19927;-76
2022/08/05 12:19:44;;;;;;;;;;;39.40;48.20;;;;;;4892919;29;20256;-77
2022/08/05 12:22:11;;;;;;;;;;;41.40;46.60;;;;;;4890860;29;20028;-75
2022/08/05 12:24:41;;;;;;;;;;;42.40;45.20;;;;;;4893683;29;19982;-76
2022/08/05 12:27:07;;;;;;;;;;;40.80;45.90;;;;;;4879174;29;19911;-80
2022/08/05 12:29:33;;;;;;;;;;;41.50;46.00;;;;;;4893228;29;21779;-78
2022/08/05 12:31:59;;;;;;;;;;;41.80;45.30;;;;;;4876142;29;20196;-76
2022/08/05 12:34:29;;;;;;;;;;;40.80;45.90;;;;;;4892175;29;19922;-75
2022/08/05 12:37:09;;;;;;;;;;;40.20;46.60;;;;;;4891679;29;20009;-76
2022/08/05 12:39:38;;;;;;;;;;;39.40;47.20;;;;;;4889475;29;19911;-77
2022/08/05 12:42:15;;;;;;;;;;;38.90;47.70;;;;;;4888206;29;20101;-79
2022/08/05 12:44:44;;;;;;;;;;;37.80;48.80;;;;;;4858287;29;19979;-75
2022/08/05 12:47:11;;;;;;;;;;;37.00;49.70;;;;;;4877643;29;19915;-76
2022/08/05 12:49:49;;;;;;;;;;;36.70;50.00;;;;;;4891757;29;19911;-76
2022/08/05 12:52:18;;;;;;;;;;;36.30;50.20;;;;;;4892605;29;20228;-76
2022/08/05 12:54:45;;;;;;;;;;;36.30;50.80;;;;;;4893672;29;20220;-76
2022/08/05 12:57:12;;;;;;;;;;;36.20;50.80;;;;;;4897400;29;19955;-77
2022/08/05 12:59:51;;;;;;;;;;;36.20;50.90;;;;;;4894211;29;19947;-76
2022/08/05 13:02:24;;;;;;;;;;;36.40;50.70;;;;;;4893981;29;19926;-76
2022/08/05 13:04:50;;;;;;;;;;;36.60;50.40;;;;;;4876600;29;19918;-76
2022/08/05 13:07:18;;;;;;;;;;;36.70;50.30;;;;;;4877168;29;19911;-76
2022/08/05 13:09:51;;;;;;;;;;;36.70;50.20;;;;;;4895301;29;19912;-76
2022/08/05 13:12:17;;;;;;;;;;;36.80;50.30;;;;;;4893152;29;19912;-76
2022/08/05 13:14:45;;;;;;;;;;;37.20;50.50;;;;;;4891931;29;19917;-77
2022/08/05 13:17:21;;;;;;;;;;;37.40;50.00;;;;;;4894135;29;19915;-76
2022/08/05 13:20:05;;;;;;;;;;;37.40;49.50;;;;;;4892042;29;19919;-77
2022/08/05 13:22:32;;;;;;;;;;;37.40;49.60;;;;;;4892601;29;20177;-76
2022/08/05 13:24:59;;;;;;;;;;;37.50;49.80;;;;;;4874532;29;20291;-78
2022/08/05 13:27:38;;;;;;;;;;;37.70;49.40;;;;;;4895882;29;19983;-76
2022/08/05 13:30:05;;;;;;;;;;;37.60;49.50;;;;;;4892080;29;19911;-75
2022/08/05 13:32:31;;;;;;;;;;;37.70;49.40;;;;;;4889724;29;19930;-75
2022/08/05 13:34:57;;;;;;;;;;;38.00;49.30;;;;;;4876972;29;20089;-75
2022/08/05 13:37:22;;;;;;;;;;;38.60;48.50;;;;;;4889457;29;19923;-75
2022/08/05 13:39:49;;;;;;;;;;;38.60;48.20;;;;;;4889078;29;19914;-75
2022/08/05 13:42:15;;;;;;;;;;;38.80;48.00;;;;;;4893520;29;19916;-76
2022/08/05 13:44:44;;;;;;;;;;;38.80;47.60;;;;;;4888238;29;20215;-75
2022/08/05 13:47:09;;;;;;;;;;;39.40;47.80;;;;;;4886439;29;19912;-74
2022/08/05 13:49:35;;;;;;;;;;;41.40;46.40;;;;;;4891618;29;19930;-77
2022/08/05 13:52:10;;;;;;;;;;;41.80;45.20;;;;;;4882400;29;19947;-76
2022/08/05 13:54:36;;;;;;;;;;;41.10;45.60;;;;;;4878257;29;20096;-75
2022/08/05 13:57:02;;;;;;;;;;;41.90;45.20;;;;;;4888229;29;19951;-76
2022/08/05 13:59:27;;;;;;;;;;;41.70;45.40;;;;;;4876969;29;20001;-75
2022/08/05 14:01:53;;;;;;;;;;;41.20;45.80;;;;;;4880615;29;19971;-74
2022/08/05 14:07:09;;;;;;;;;;;41.60;45.80;;;;;;4850988;29;19995;-76
2022/08/05 14:09:36;;;;;;;;;;;44.30;44.20;;;;;;4866172;29;19914;-75
2022/08/05 14:12:02;;;;;;;;;;;45.60;43.00;;;;;;4872808;29;19950;-75
2022/08/05 14:14:28;;;;;;;;;;;44.80;42.70;;;;;;4890839;29;20160;-76
2022/08/05 14:16:53;;;;;;;;;;;44.40;42.90;;;;;;4893072;29;19978;-73
2022/08/05 14:19:19;;;;;;;;;;;43.60;42.90;;;;;;4896250;29;19911;-74
2022/08/05 14:21:45;;;;;;;;;;;41.90;44.40;;;;;;4892707;29;19923;-75
2022/08/05 14:24:11;;;;;;;;;;;40.50;45.40;;;;;;4892649;29;19914;-77
2022/08/05 14:26:37;;;;;;;;;;;39.30;46.60;;;;;;4864798;29;19921;-78
2022/08/05 14:29:03;;;;;;;;;;;37.80;48.10;;;;;;4894412;29;19938;-78
2022/08/05 14:31:29;;;;;;;;;;;36.70;49.50;;;;;;4889359;29;19915;-77
2022/08/05 14:33:55;;;;;;;;;;;35.90;50.50;;;;;;4892947;29;19987;-77
2022/08/05 14:36:21;;;;;;;;;;;35.40;51.30;;;;;;4875895;29;19919;-77
2022/08/05 14:38:46;;;;;;;;;;;34.80;52.40;;;;;;4877388;29;19919;-77
2022/08/05 14:41:12;;;;;;;;;;;34.30;52.60;;;;;;4890590;29;20000;-76
2022/08/05 14:43:38;;;;;;;;;;;33.90;53.10;;;;;;4873148;29;19923;-77
2022/08/05 14:46:03;;;;;;;;;;;33.70;53.50;;;;;;4887631;29;19982;-78
2022/08/05 14:48:29;;;;;;;;;;;33.60;53.80;;;;;;4873758;29;19928;-77
2022/08/05 14:50:55;;;;;;;;;;;33.40;54.00;;;;;;4890069;29;19912;-77
2022/08/05 14:53:20;;;;;;;;;;;33.20;54.60;;;;;;4861844;29;20213;-78
2022/08/05 14:55:46;;;;;;;;;;;32.90;55.50;;;;;;4855906;29;19979;-79
2022/08/05 14:58:12;;;;;;;;;;;32.70;55.90;;;;;;4874735;29;19923;-78
2022/08/05 15:00:38;;;;;;;;;;;32.50;56.30;;;;;;4890691;29;19943;-76
2022/08/05 15:03:04;;;;;;;;;;;32.30;56.80;;;;;;4885647;29;20410;-77
2022/08/05 15:05:31;;;;;;;;;;;32.20;57.60;;;;;;4887321;29;20121;-77
2022/08/05 15:07:56;;;;;;;;;;;32.10;58.10;;;;;;4860763;29;19919;-76
2022/08/05 15:10:22;;;;;;;;;;;32.00;58.60;;;;;;4888271;29;19946;-76
2022/08/05 15:12:48;;;;;;;;;;;31.80;58.80;;;;;;4890747;29;19947;-76
2022/08/05 15:15:13;;;;;;;;;;;31.90;59.20;;;;;;4887907;29;19979;-75
2022/08/05 15:17:39;;;;;;;;;;;31.90;60.20;;;;;;4890105;29;20153;-77
2022/08/05 15:20:05;;;;;;;;;;;32.00;59.80;;;;;;4858645;29;19919;-76
2022/08/05 15:22:31;;;;;;;;;;;32.10;74.90;;;;;;4890342;29;19923;-74
2022/08/05 15:24:57;;;;;;;;;;;30.00;90.80;;;;;;4887254;29;19929;-77
2022/08/05 15:27:23;;;;;;;;;;;28.20;95.40;;;;;;4873991;29;19911;-77
2022/08/05 15:29:49;;;;;;;;;;;28.70;99.90;;;;;;4871136;29;19951;-76
2022/08/05 15:32:14;;;;;;;;;;;30.20;94.50;;;;;;4887270;29;19963;-78
2022/08/05 15:34:40;;;;;;;;;;;31.90;81.30;;;;;;4889862;29;20090;-76
2022/08/05 15:37:06;;;;;;;;;;;33.10;72.80;;;;;;4877326;29;19926;-78
2022/08/05 15:39:31;;;;;;;;;;;33.80;77.40;;;;;;4871484;29;19978;-79
2022/08/05 15:42:00;;;;;;;;;;;35.30;68.70;;;;;;4891873;29;19939;-78
2022/08/05 15:44:46;;;;;;;;;;;36.80;66.00;;;;;;4815091;29;19937;-78
2022/08/05 15:47:12;;;;;;;;;;;38.90;59.50;;;;;;4824747;29;19913;-80
2022/08/05 15:49:38;;;;;;;;;;;40.30;57.20;;;;;;4786446;29;20103;-78
2022/08/05 15:52:03;;;;;;;;;;;41.90;53.90;;;;;;4838780;29;19912;-76
2022/08/05 15:54:32;;;;;;;;;;;42.60;52.20;;;;;;4825689;29;19916;-77
2022/08/05 15:56:57;;;;;;;;;;;43.00;51.70;;;;;;4840018;29;20023;-78
2022/08/05 15:59:26;;;;;;;;;;;43.00;50.40;;;;;;4833444;29;19987;-77
2022/08/05 16:01:51;;;;;;;;;;;42.70;50.50;;;;;;4834539;29;20218;-77
2022/08/05 16:04:17;;;;;;;;;;;43.00;49.90;;;;;;4810243;29;19983;-78
2022/08/05 16:06:43;;;;;;;;;;;42.90;49.70;;;;;;4821019;29;19917;-77
2022/08/05 16:09:08;;;;;;;;;;;42.30;50.20;;;;;;4819743;29;20265;-79
2022/08/05 16:11:35;;;;;;;;;;;42.50;50.60;;;;;;4820295;29;20030;-77
2022/08/05 16:14:00;;;;;;;;;;;42.80;49.80;;;;;;4808980;29;20194;-76
2022/08/05 16:16:26;;;;;;;;;;;43.00;49.20;;;;;;4838844;29;19983;-77
2022/08/05 16:18:53;;;;;;;;;;;43.00;49.60;;;;;;4842387;29;19915;-75
2022/08/05 16:21:19;;;;;;;;;;;42.70;48.80;;;;;;4850984;29;19912;-79
2022/08/05 16:23:44;;;;;;;;;;;42.10;49.20;;;;;;4854601;29;19983;-77
2022/08/05 16:26:11;;;;;;;;;;;42.10;49.60;;;;;;4813093;29;19912;-78
2022/08/05 16:28:38;;;;;;;;;;;41.70;49.30;;;;;;4787824;29;19932;-77
2022/08/05 16:31:04;;;;;;;;;;;41.10;50.30;;;;;;4823355;29;19912;-77
2022/08/05 16:33:31;;;;;;;;;;;41.00;50.30;;;;;;4817675;29;19924;-75
2022/08/05 16:36:19;;;;;;;;;;;40.90;50.20;;;;;;4841521;29;20430;-76
2022/08/05 16:38:44;;;;;;;;;;;40.40;50.00;;;;;;4796958;29;19947;-77
2022/08/05 16:41:09;;;;;;;;;;;39.10;51.40;;;;;;4829636;29;19919;-77
2022/08/05 16:43:35;;;;;;;;;;;37.40;53.70;;;;;;4856644;29;19984;-76
2022/08/05 16:46:01;;;;;;;;;;;36.90;54.90;;;;;;4835814;29;19912;-78
2022/08/05 16:48:30;;;;;;;;;;;37.00;54.50;;;;;;4852673;29;19987;-79
2022/08/05 16:50:58;;;;;;;;;;;37.60;53.40;;;;;;4815049;29;20023;-75
2022/08/05 16:53:23;;;;;;;;;;;36.90;54.00;;;;;;4821199;29;20070;-76
2022/08/05 16:55:49;;;;;;;;;;;35.70;55.60;;;;;;4854893;29;21056;-75
2022/08/05 16:58:15;;;;;;;;;;;35.00;57.50;;;;;;4857094;29;19923;-74
2022/08/05 17:00:40;;;;;;;;;;;34.00;57.70;;;;;;4856308;29;19944;-77
2022/08/05 17:03:06;;;;;;;;;;;33.30;59.10;;;;;;4867203;29;19920;-75
2022/08/05 17:05:31;;;;;;;;;;;32.90;59.80;;;;;;4876366;29;19922;-76
2022/08/05 17:07:57;;;;;;;;;;;32.30;61.00;;;;;;4889090;29;19939;-75
2022/08/05 17:10:23;;;;;;;;;;;31.80;62.20;;;;;;4878084;29;20166;-75
2022/08/05 17:12:49;;;;;;;;;;;31.40;63.20;;;;;;4853641;29;20031;-76
2022/08/05 17:15:15;;;;;;;;;;;31.20;63.20;;;;;;4826521;29;20058;-75
2022/08/05 17:17:40;;;;;;;;;;;30.60;63.90;;;;;;4856418;29;19935;-77
2022/08/05 17:20:07;;;;;;;;;;;30.40;64.70;;;;;;4865122;29;19958;-76
2022/08/05 17:22:33;;;;;;;;;;;30.20;65.20;;;;;;4871723;29;19993;-78
2022/08/05 17:24:59;;;;;;;;;;;30.00;65.70;;;;;;4850470;29;19908;-79
2022/08/05 17:27:26;;;;;;;;;;;29.90;66.10;;;;;;4860776;29;20190;-78
2022/08/05 17:29:52;;;;;;;;;;;29.70;66.10;;;;;;4879669;29;19911;-78
2022/08/05 17:32:18;;;;;;;;;;;29.50;67.10;;;;;;4889881;29;19907;-75
2022/08/05 17:34:44;;;;;;;;;;;29.50;67.50;;;;;;4890185;29;20051;-77
2022/08/05 17:37:10;;;;;;;;;;;29.40;67.70;;;;;;4891027;29;19911;-78
2022/08/05 17:39:36;;;;;;;;;;;29.30;67.60;;;;;;4885494;29;19954;-78
2022/08/05 17:42:02;;;;;;;;;;;29.00;68.00;;;;;;4866506;29;19992;-78
2022/08/05 17:44:28;;;;;;;;;;;28.70;68.70;;;;;;4877982;29;20046;-77
2022/08/05 17:46:53;;;;;;;;;;;28.60;69.20;;;;;;4892085;29;19919;-77
2022/08/05 17:49:19;;;;;;;;;;;28.40;69.20;;;;;;4895163;29;20073;-77
2022/08/05 17:51:45;;;;;;;;;;;28.20;69.90;;;;;;4896422;29;19978;-77
2022/08/05 17:54:11;;;;;;;;;;;28.10;70.50;;;;;;4877941;29;19911;-78
2022/08/05 17:56:36;;;;;;;;;;;28.00;70.80;;;;;;4869919;29;19958;-77
2022/08/05 17:59:05;;;;;;;;;;;27.80;71.20;;;;;;4894887;29;19912;-78
2022/08/05 18:01:31;;;;;;;;;;;27.70;71.60;;;;;;4873956;29;19911;-77
2022/08/05 18:03:56;;;;;;;;;;;27.60;72.00;;;;;;4893650;29;19912;-79
2022/08/05 18:06:22;;;;;;;;;;;27.40;72.60;;;;;;4893582;29;19927;-77
2022/08/05 18:08:48;;;;;;;;;;;27.30;73.40;;;;;;4861211;29;19934;-79
2022/08/05 18:11:14;;;;;;;;;;;27.20;74.20;;;;;;4891660;29;20031;-79
2022/08/05 18:13:50;;;;;;;;;;;27.00;76.50;;;;;;4879397;29;19956;-81
2022/08/05 18:16:16;;;;;;;;;;;26.70;77.80;;;;;;4860719;29;19951;-78
2022/08/05 18:18:42;;;;;;;;;;;26.60;79.20;;;;;;4882767;29;20089;-77
2022/08/05 18:21:08;;;;;;;;;;;26.40;80.10;;;;;;4867543;29;19916;-77
2022/08/05 18:23:33;;;;;;;;;;;26.30;80.70;;;;;;4827406;29;19916;-76
2022/08/05 18:25:59;;;;;;;;;;;26.20;81.40;;;;;;4867486;29;19923;-77
2022/08/05 18:28:25;;;;;;;;;;;26.00;81.70;;;;;;4883218;29;19923;-78
2022/08/05 18:30:51;;;;;;;;;;;25.90;82.10;;;;;;4884232;29;19920;-79
2022/08/05 18:33:17;;;;;;;;;;;25.90;81.80;;;;;;4877991;29;20213;-79
2022/08/05 18:35:43;;;;;;;;;;;25.80;81.70;;;;;;4886347;29;19919;-75
2022/08/05 18:38:09;;;;;;;;;;;25.70;81.70;;;;;;4880083;29;19962;-77
2022/08/05 18:40:34;;;;;;;;;;;25.60;82.10;;;;;;4888998;29;20017;-77
2022/08/05 18:43:02;;;;;;;;;;;25.60;82.70;;;;;;4878109;29;19919;-76
2022/08/05 18:45:27;;;;;;;;;;;25.60;83.00;;;;;;4874331;29;19911;-77
2022/08/05 18:47:53;;;;;;;;;;;25.50;83.40;;;;;;4859225;29;20137;-76
2022/08/05 18:53:03;;;;;;;;;;;25.40;84.10;;;;;;4894232;29;19919;-77
2022/08/05 18:55:32;;;;;;;;;;;25.30;84.10;;;;;;4889109;29;19919;-78
2022/08/05 18:58:01;;;;;;;;;;;25.30;84.40;;;;;;4871310;29;19912;-79
2022/08/05 19:00:31;;;;;;;;;;;25.20;84.70;;;;;;4885647;29;19912;-76
2022/08/05 19:02:57;;;;;;;;;;;25.10;84.70;;;;;;4872704;29;19915;-77
2022/08/05 19:05:23;;;;;;;;;;;25.10;85.20;;;;;;4903574;29;19934;-76
2022/08/05 19:07:51;;;;;;;;;;;25.00;85.20;;;;;;4894862;29;19940;-76
2022/08/05 19:10:20;;;;;;;;;;;24.90;85.20;;;;;;4887182;29;19918;-78
2022/08/05 19:12:49;;;;;;;;;;;24.80;85.30;;;;;;4887538;29;19920;-75
2022/08/05 19:15:18;;;;;;;;;;;24.80;85.80;;;;;;4893301;29;19920;-75
2022/08/05 19:17:44;;;;;;;;;;;24.60;86.00;;;;;;4888536;29;19912;-76
2022/08/05 19:20:14;;;;;;;;;;;24.50;86.40;;;;;;4883737;29;20069;-75
2022/08/05 19:22:42;;;;;;;;;;;24.50;86.80;;;;;;4867845;29;19918;-76
2022/08/05 19:25:09;;;;;;;;;;;24.50;86.80;;;;;;4888107;29;19940;-74
2022/08/05 19:27:34;;;;;;;;;;;24.40;87.00;;;;;;4869835;29;19988;-77